Wetterdaten: Freitag, 14.05.2010
Datum Zeit Temp. A. Feuchte A. Luftdruck Regen Wind Richtung Richtung Sonnenschein UV Solar Windben
14.05.2010 00:00 7,8 C 85 % 1011,9 hPa 0,0 mm 0,0 km/h (0 Bft) NW 315 0 min 0 UV-I 0 W/m 6,4 km/h (2 Bft)
14.05.2010 00:10 7,7 C 85 % 1011,9 hPa 0,0 mm 0,0 km/h (0 Bft) NW 315 0 min 0 UV-I 0 W/m 6,4 km/h (2 Bft)
14.05.2010 00:20 7,7 C 85 % 1011,9 hPa 0,0 mm 0,0 km/h (0 Bft) N 360 0 min 0 UV-I 0 W/m 1,6 km/h (1 Bft)
14.05.2010 00:30 7,6 C 86 % 1011,8 hPa 0,0 mm 0,0 km/h (0 Bft) N 360 0 min 0 UV-I 0 W/m 1,6 km/h (1 Bft)
14.05.2010 00:40 7,6 C 86 % 1011,9 hPa 0,0 mm 0,0 km/h (0 Bft) N 360 0 min 0 UV-I 0 W/m 1,6 km/h (1 Bft)
14.05.2010 00:50 7,5 C 86 % 1011,9 hPa 0,0 mm 0,0 km/h (0 Bft) N 360 0 min 0 UV-I 0 W/m 4,8 km/h (1 Bft)
14.05.2010 01:00 7,4 C 86 % 1011,8 hPa 0,0 mm 0,0 km/h (0 Bft) N 360 0 min 0 UV-I 0 W/m 4,8 km/h (1 Bft)
14.05.2010 01:10 7,4 C 87 % 1011,7 hPa 0,0 mm 0,0 km/h (0 Bft) N 360 0 min 0 UV-I 0 W/m 3,2 km/h (1 Bft)
14.05.2010 01:20 7,3 C 87 % 1011,6 hPa 0,0 mm 0,0 km/h (0 Bft) N 360 0 min 0 UV-I 0 W/m 3,2 km/h (1 Bft)
14.05.2010 01:30 7,3 C 87 % 1011,4 hPa 0,0 mm 0,0 km/h (0 Bft) N 360 0 min 0 UV-I 0 W/m 3,2 km/h (1 Bft)
14.05.2010 01:40 7,3 C 87 % 1011,4 hPa 0,0 mm 0,0 km/h (0 Bft) N 360 0 min 0 UV-I 0 W/m 4,8 km/h (1 Bft)
14.05.2010 01:50 7,2 C 88 % 1011,5 hPa 0,0 mm 0,0 km/h (0 Bft) N 360 0 min 0 UV-I 0 W/m 4,8 km/h (1 Bft)
14.05.2010 02:00 7,2 C 88 % 1011,4 hPa 0,0 mm 0,0 km/h (0 Bft) N 360 0 min 0 UV-I 0 W/m 1,6 km/h (1 Bft)
14.05.2010 02:10 7,2 C 88 % 1011,4 hPa 0,0 mm 0,0 km/h (0 Bft) N 360 0 min 0 UV-I 0 W/m 3,2 km/h (1 Bft)
14.05.2010 02:20 7,2 C 88 % 1011,4 hPa 0,0 mm 0,0 km/h (0 Bft) N 360 0 min 0 UV-I 0 W/m 1,6 km/h (1 Bft)
14.05.2010 02:30 7,2 C 88 % 1011,4 hPa 0,0 mm 0,0 km/h (0 Bft) N 360 0 min 0 UV-I 0 W/m 1,6 km/h (1 Bft)
14.05.2010 02:40 7,1 C 88 % 1011,4 hPa 0,0 mm 0,0 km/h (0 Bft) N 0 0 min 0 UV-I 0 W/m 0,0 km/h (0 Bft)
14.05.2010 02:50 7,1 C 88 % 1011,3 hPa 0,0 mm 0,0 km/h (0 Bft) N 360 0 min 0 UV-I 0 W/m 1,6 km/h (1 Bft)
14.05.2010 03:00 7,1 C 89 % 1011,2 hPa 0,0 mm 0,0 km/h (0 Bft) N 360 0 min 0 UV-I 0 W/m 1,6 km/h (1 Bft)
14.05.2010 03:10 7,1 C 89 % 1011,2 hPa 0,0 mm 0,0 km/h (0 Bft) N 0 0 min 0 UV-I 0 W/m 0,0 km/h (0 Bft)
14.05.2010 03:20 7,1 C 89 % 1011,2 hPa 0,0 mm 0,0 km/h (0 Bft) N 360 0 min 0 UV-I 0 W/m 3,2 km/h (1 Bft)
14.05.2010 03:30 7,0 C 89 % 1011,0 hPa 0,0 mm 0,0 km/h (0 Bft) N-NW 337 0 min 0 UV-I 0 W/m 3,2 km/h (1 Bft)
14.05.2010 03:40 7,1 C 89 % 1011,0 hPa 0,0 mm 0,0 km/h (0 Bft) N-NW 337 0 min 0 UV-I 0 W/m 3,2 km/h (1 Bft)
14.05.2010 03:50 7,0 C 89 % 1011,0 hPa 0,0 mm 0,0 km/h (0 Bft) N-NW 337 0 min 0 UV-I 0 W/m 1,6 km/h (1 Bft)
14.05.2010 04:00 7,0 C 89 % 1010,9 hPa 0,0 mm 0,0 km/h (0 Bft) N-NW 337 0 min 0 UV-I 0 W/m 3,2 km/h (1 Bft)
14.05.2010 04:10 7,0 C 89 % 1010,9 hPa 0,0 mm 0,0 km/h (0 Bft) N-NW 337 0 min 0 UV-I 0 W/m 6,4 km/h (2 Bft)
14.05.2010 04:20 7,0 C 89 % 1010,9 hPa 0,0 mm 1,6 km/h (1 Bft) N-NW 337 0 min 0 UV-I 0 W/m 4,8 km/h (1 Bft)
14.05.2010 04:30 6,9 C 89 % 1010,9 hPa 0,0 mm 0,0 km/h (0 Bft) N-NW 337 0 min 0 UV-I 0 W/m 3,2 km/h (1 Bft)
14.05.2010 04:40 6,9 C 89 % 1010,9 hPa 0,0 mm 0,0 km/h (0 Bft) N-NW 337 0 min 0 UV-I 0 W/m 4,8 km/h (1 Bft)
14.05.2010 04:50 6,9 C 89 % 1010,9 hPa 0,0 mm 0,0 km/h (0 Bft) N-NW 337 0 min 0 UV-I 0 W/m 4,8 km/h (1 Bft)
14.05.2010 05:00 6,9 C 89 % 1010,9 hPa 0,0 mm 0,0 km/h (0 Bft) N-NW 337 0 min 0 UV-I 0 W/m 1,6 km/h (1 Bft)
14.05.2010 05:10 6,9 C 89 % 1010,8 hPa 0,0 mm 0,0 km/h (0 Bft) N-NW 337 0 min 0 UV-I 0 W/m 3,2 km/h (1 Bft)
14.05.2010 05:20 6,9 C 89 % 1010,8 hPa 0,0 mm 0,0 km/h (0 Bft) N-NW 337 0 min 0 UV-I 0 W/m 4,8 km/h (1 Bft)
14.05.2010 05:30 6,9 C 89 % 1010,8 hPa 0,0 mm 0,0 km/h (0 Bft) NW 315 0 min 0 UV-I 0 W/m 6,4 km/h (2 Bft)
14.05.2010 05:40 6,8 C 90 % 1010,8 hPa 0,0 mm 0,0 km/h (0 Bft) N 360 0 min 0 UV-I 0 W/m 4,8 km/h (1 Bft)
14.05.2010 05:50 6,8 C 90 % 1010,7 hPa 0,0 mm 0,0 km/h (0 Bft) N-NW 337 0 min 0 UV-I 0 W/m 4,8 km/h (1 Bft)
14.05.2010 06:00 6,8 C 90 % 1010,8 hPa 0,0 mm 0,0 km/h (0 Bft) N-NW 337 0 min 0 UV-I 5 W/m 3,2 km/h (1 Bft)
14.05.2010 06:10 6,8 C 90 % 1010,7 hPa 0,0 mm 0,0 km/h (0 Bft) N-NW 337 0 min 0 UV-I 9 W/m 1,6 km/h (1 Bft)
14.05.2010 06:20 6,8 C 90 % 1010,7 hPa 0,0 mm 0,0 km/h (0 Bft) N-NW 337 0 min 0 UV-I 12 W/m 1,6 km/h (1 Bft)
14.05.2010 06:30 6,8 C 90 % 1010,7 hPa 0,0 mm 0,0 km/h (0 Bft) N-NW 337 0 min 0 UV-I 16 W/m 3,2 km/h (1 Bft)
14.05.2010 06:40 6,8 C 90 % 1010,7 hPa 0,0 mm 0,0 km/h (0 Bft) N-NW 337 0 min 0 UV-I 16 W/m 3,2 km/h (1 Bft)
14.05.2010 06:50 6,8 C 90 % 1010,7 hPa 0,0 mm 0,0 km/h (0 Bft) N-NW 337 0 min 0 UV-I 21 W/m 4,8 km/h (1 Bft)
14.05.2010 07:00 6,8 C 90 % 1010,8 hPa 0,0 mm 0,0 km/h (0 Bft) N-NW 337 0 min 0 UV-I 25 W/m 4,8 km/h (1 Bft)
14.05.2010 07:10 6,8 C 90 % 1010,8 hPa 0,0 mm 1,6 km/h (1 Bft) N 360 0 min 0 UV-I 26 W/m 4,8 km/h (1 Bft)
14.05.2010 07:20 6,8 C 90 % 1010,8 hPa 0,0 mm 0,0 km/h (0 Bft) N 360 0 min 0 UV-I 32 W/m 4,8 km/h (1 Bft)
14.05.2010 07:30 6,8 C 89 % 1010,8 hPa 0,0 mm 0,0 km/h (0 Bft) N 360 0 min 0 UV-I 37 W/m 6,4 km/h (2 Bft)
14.05.2010 07:40 6,8 C 89 % 1010,7 hPa 0,0 mm 0,0 km/h (0 Bft) N-NO 22 0 min 0 UV-I 49 W/m 3,2 km/h (1 Bft)
14.05.2010 07:50 6,8 C 89 % 1010,7 hPa 0,0 mm 0,0 km/h (0 Bft) N-NO 22 0 min 0 UV-I 49 W/m 3,2 km/h (1 Bft)
14.05.2010 08:00 6,8 C 89 % 1010,8 hPa 0,0 mm 0,0 km/h (0 Bft) N-NO 13 0 min 0 UV-I 53 W/m 0,0 km/h (0 Bft)
14.05.2010 08:10 6,9 C 89 % 1010,8 hPa 0,0 mm 0,0 km/h (0 Bft) N-NO 22 0 min 0 UV-I 62 W/m 3,2 km/h (1 Bft)
14.05.2010 08:20 6,9 C 89 % 1010,8 hPa 0,0 mm 0,0 km/h (0 Bft) N-NO 22 0 min 0 UV-I 67 W/m 4,8 km/h (1 Bft)
14.05.2010 08:30 7,0 C 88 % 1010,9 hPa 0,0 mm 0,0 km/h (0 Bft) N-NO 22 0 min 0 UV-I 65 W/m 3,2 km/h (1 Bft)
14.05.2010 08:40 7,1 C 88 % 1011,0 hPa 0,0 mm 0,0 km/h (0 Bft) N-NO 22 0 min 0 UV-I 67 W/m 3,2 km/h (1 Bft)
14.05.2010 08:50 7,1 C 87 % 1011,0 hPa 0,0 mm 0,0 km/h (0 Bft) N-NO 22 0 min 1 UV-I 79 W/m 4,8 km/h (1 Bft)
14.05.2010 09:00 7,2 C 87 % 1011,0 hPa 0,0 mm 0,0 km/h (0 Bft) N-NO 22 0 min 1 UV-I 90 W/m 3,2 km/h (1 Bft)
14.05.2010 09:10 7,2 C 87 % 1011,1 hPa 0,0 mm 0,0 km/h (0 Bft) N-NO 22 0 min 1 UV-I 91 W/m 3,2 km/h (1 Bft)
14.05.2010 09:20 7,3 C 86 % 1011,2 hPa 0,0 mm 0,0 km/h (0 Bft) N-NO 22 0 min 1 UV-I 98 W/m 6,4 km/h (2 Bft)
14.05.2010 09:30 7,3 C 85 % 1011,2 hPa 0,0 mm 0,0 km/h (0 Bft) N-NO 22 0 min 1 UV-I 114 W/m 4,8 km/h (1 Bft)
14.05.2010 09:40 7,4 C 84 % 1011,2 hPa 0,0 mm 0,0 km/h (0 Bft) N-NO 22 0 min 1 UV-I 137 W/m 4,8 km/h (1 Bft)
14.05.2010 09:50 7,5 C 84 % 1011,3 hPa 0,0 mm 0,0 km/h (0 Bft) N-NO 22 0 min 1 UV-I 144 W/m 4,8 km/h (1 Bft)
14.05.2010 10:00 7,7 C 83 % 1011,3 hPa 0,0 mm 0,0 km/h (0 Bft) N-NO 22 0 min 1 UV-I 165 W/m 3,2 km/h (1 Bft)
14.05.2010 10:10 7,8 C 81 % 1011,3 hPa 0,0 mm 0,0 km/h (0 Bft) N-NO 22 0 min 1 UV-I 183 W/m 3,2 km/h (1 Bft)
14.05.2010 10:20 7,9 C 80 % 1011,3 hPa 0,0 mm 0,0 km/h (0 Bft) N 360 0 min 1 UV-I 207 W/m 4,8 km/h (1 Bft)
14.05.2010 10:30 8,1 C 78 % 1011,3 hPa 0,0 mm 1,6 km/h (1 Bft) N 360 0 min 2 UV-I 243 W/m 4,8 km/h (1 Bft)
14.05.2010 10:40 8,4 C 77 % 1011,3 hPa 0,0 mm 1,0 km/h (0 Bft) N-NW 341 0 min 2 UV-I 274 W/m 6,4 km/h (2 Bft)
14.05.2010 10:50 8,6 C 77 % 1011,3 hPa 0,0 mm 0,4 km/h (0 Bft) N-NW 340 0 min 2 UV-I 283 W/m 4,8 km/h (1 Bft)
14.05.2010 11:00 8,7 C 75 % 1011,2 hPa 0,0 mm 0,7 km/h (0 Bft) N-NW 341 0 min 2 UV-I 330 W/m 4,8 km/h (1 Bft)
14.05.2010 11:10 9,0 C 77 % 1011,2 hPa 0,0 mm 1,6 km/h (1 Bft) N-NW 342 10 min 3 UV-I 406 W/m 6,4 km/h (2 Bft)
14.05.2010 11:20 9,1 C 70 % 1011,2 hPa 0,0 mm 1,7 km/h (1 Bft) W-NW 300 10 min 3 UV-I 412 W/m 6,4 km/h (2 Bft)
14.05.2010 11:30 9,3 C 72 % 1011,1 hPa 0,0 mm 1,5 km/h (1 Bft) W 266 10 min 3 UV-I 482 W/m 6,4 km/h (2 Bft)
14.05.2010 11:40 9,9 C 70 % 1010,9 hPa 0,0 mm 0,5 km/h (0 Bft) W 267 10 min 4 UV-I 643 W/m 4,8 km/h (1 Bft)
14.05.2010 11:50 10,5 C 62 % 1010,5 hPa 0,0 mm 2,0 km/h (1 Bft) NW 304 10 min 5 UV-I 885 W/m 8,0 km/h (2 Bft)
14.05.2010 12:00 11,1 C 62 % 1010,8 hPa 0,0 mm 1,5 km/h (1 Bft) W-NW 292 10 min 5 UV-I 865 W/m 8,0 km/h (2 Bft)
14.05.2010 12:10 11,1 C 60 % 1008,2 hPa 0,0 mm 3,5 km/h (1 Bft) N-NO 26 10 min 4 UV-I 609 W/m 11,3 km/h (2 Bft)
14.05.2010 12:20 11,2 C 57 % 1007,7 hPa 0,0 mm 3,6 km/h (1 Bft) N-NO 17 10 min 5 UV-I 883 W/m 14,5 km/h (3 Bft)
14.05.2010 12:30 10,8 C 59 % 1009,4 hPa 0,0 mm 3,2 km/h (1 Bft) N-NW 330 0 min 3 UV-I 285 W/m 9,7 km/h (2 Bft)
14.05.2010 12:40 10,8 C 58 % 1005,9 hPa 0,0 mm 1,9 km/h (1 Bft) NO 44 0 min 4 UV-I 325 W/m 8,0 km/h (2 Bft)
14.05.2010 12:50 11,7 C 54 % 1005,9 hPa 0,0 mm 2,5 km/h (1 Bft) N-NO 24 10 min 4 UV-I 793 W/m 9,7 km/h (2 Bft)
14.05.2010 13:00 11,3 C 55 % 1007,1 hPa 0,0 mm 1,7 km/h (1 Bft) N-NO 13 0 min 3 UV-I 371 W/m 8,0 km/h (2 Bft)
14.05.2010 13:10 11,3 C 56 % 1007,1 hPa 0,0 mm 3,9 km/h (1 Bft) N-NO 19 0 min 3 UV-I 339 W/m 14,5 km/h (3 Bft)
14.05.2010 13:20 11,1 C 56 % 1007,1 hPa 0,0 mm 1,2 km/h (1 Bft) N 360 0 min 2 UV-I 266 W/m 6,4 km/h (2 Bft)
14.05.2010 13:30 11,3 C 58 % 1008,5 hPa 0,0 mm 1,1 km/h (1 Bft) N-NO 33 0 min 3 UV-I 354 W/m 9,7 km/h (2 Bft)
14.05.2010 13:40 11,3 C 57 % 1006,4 hPa 0,0 mm 2,9 km/h (1 Bft) N 10 0 min 2 UV-I 296 W/m 9,7 km/h (2 Bft)
14.05.2010 13:50 11,6 C 58 % 1008,9 hPa 0,0 mm 1,7 km/h (1 Bft) N-NO 13 0 min 3 UV-I 363 W/m 8,0 km/h (2 Bft)
14.05.2010 14:00 11,8 C 57 % 1010,2 hPa 0,0 mm 3,0 km/h (1 Bft) N-NO 22 0 min 3 UV-I 435 W/m 8,0 km/h (2 Bft)
14.05.2010 14:10 12,6 C 58 % 1010,2 hPa 0,0 mm 1,8 km/h (1 Bft) NO 55 10 min 4 UV-I 466 W/m 8,0 km/h (2 Bft)
14.05.2010 14:20 11,9 C 56 % 1010,6 hPa 0,0 mm 2,4 km/h (1 Bft) N 10 0 min 3 UV-I 330 W/m 14,5 km/h (3 Bft)
14.05.2010 14:30 12,2 C 56 % 1010,7 hPa 0,0 mm 2,3 km/h (1 Bft) N 9 0 min 3 UV-I 419 W/m 9,7 km/h (2 Bft)
14.05.2010 14:40 11,8 C 55 % 1010,7 hPa 0,0 mm 2,6 km/h (1 Bft) N-NO 20 0 min 2 UV-I 250 W/m 8,0 km/h (2 Bft)
14.05.2010 14:50 11,6 C 58 % 1010,8 hPa 0,0 mm 3,4 km/h (1 Bft) N-NO 30 0 min 2 UV-I 198 W/m 14,5 km/h (3 Bft)
14.05.2010 15:00 11,6 C 58 % 1010,8 hPa 0,0 mm 0,4 km/h (0 Bft) N-NO 26 0 min 2 UV-I 228 W/m 6,4 km/h (2 Bft)
14.05.2010 15:10 11,6 C 56 % 1010,9 hPa 0,0 mm 1,2 km/h (1 Bft) NW 306 0 min 2 UV-I 260 W/m 8,0 km/h (2 Bft)
14.05.2010 15:20 11,7 C 55 % 1010,9 hPa 0,0 mm 1,2 km/h (1 Bft) N 351 0 min 2 UV-I 243 W/m 9,7 km/h (2 Bft)
14.05.2010 15:30 11,6 C 57 % 1010,9 hPa 0,0 mm 1,8 km/h (1 Bft) N-NO 16 0 min 2 UV-I 253 W/m 9,7 km/h (2 Bft)
14.05.2010 15:40 12,2 C 56 % 1010,9 hPa 0,0 mm 1,4 km/h (1 Bft) N-NW 344 0 min 2 UV-I 295 W/m 6,4 km/h (2 Bft)
14.05.2010 15:50 12,4 C 58 % 1010,9 hPa 0,0 mm 2,8 km/h (1 Bft) O 83 0 min 3 UV-I 372 W/m 8,0 km/h (2 Bft)
14.05.2010 16:00 12,4 C 55 % 1010,9 hPa 0,0 mm 1,5 km/h (1 Bft) N 5 0 min 2 UV-I 379 W/m 6,4 km/h (2 Bft)
14.05.2010 16:10 12,5 C 55 % 1010,8 hPa 0,0 mm 3,9 km/h (1 Bft) W-NW 301 10 min 2 UV-I 416 W/m 11,3 km/h (2 Bft)
14.05.2010 16:20 12,5 C 54 % 1010,8 hPa 0,0 mm 2,9 km/h (1 Bft) N 10 10 min 2 UV-I 430 W/m 9,7 km/h (2 Bft)
14.05.2010 16:30 12,7 C 56 % 1010,7 hPa 0,0 mm 2,4 km/h (1 Bft) N-NO 20 0 min 1 UV-I 199 W/m 8,0 km/h (2 Bft)
14.05.2010 16:40 12,0 C 57 % 1010,8 hPa 0,0 mm 1,7 km/h (1 Bft) NW 315 0 min 1 UV-I 150 W/m 8,0 km/h (2 Bft)
14.05.2010 16:50 12,1 C 56 % 1010,8 hPa 0,0 mm 1,0 km/h (0 Bft) N-NW 339 0 min 1 UV-I 138 W/m 4,8 km/h (1 Bft)
14.05.2010 17:00 11,9 C 56 % 1010,8 hPa 0,0 mm 0,8 km/h (0 Bft) N-NW 329 0 min 1 UV-I 104 W/m 4,8 km/h (1 Bft)
14.05.2010 17:10 12,0 C 58 % 1010,8 hPa 0,0 mm 0,7 km/h (0 Bft) N-NO 24 0 min 1 UV-I 120 W/m 6,4 km/h (2 Bft)
14.05.2010 17:20 11,7 C 57 % 1010,8 hPa 0,0 mm 3,1 km/h (1 Bft) N 360 0 min 1 UV-I 84 W/m 11,3 km/h (2 Bft)
14.05.2010 17:30 11,5 C 59 % 1010,9 hPa 0,0 mm 2,3 km/h (1 Bft) N-NO 27 0 min 1 UV-I 74 W/m 9,7 km/h (2 Bft)
14.05.2010 17:40 11,5 C 60 % 1010,9 hPa 0,0 mm 1,9 km/h (1 Bft) N-NO 15 0 min 0 UV-I 67 W/m 8,0 km/h (2 Bft)
14.05.2010 17:50 11,2 C 61 % 1010,9 hPa 0,0 mm 4,4 km/h (1 Bft) N-NO 19 0 min 0 UV-I 60 W/m 16,1 km/h (3 Bft)
14.05.2010 18:00 11,1 C 62 % 1010,8 hPa 0,0 mm 3,1 km/h (1 Bft) N-NW 342 0 min 0 UV-I 60 W/m 11,3 km/h (2 Bft)
14.05.2010 18:10 11,0 C 62 % 1010,8 hPa 0,0 mm 3,9 km/h (1 Bft) N 355 0 min 0 UV-I 67 W/m 12,9 km/h (3 Bft)
14.05.2010 18:20 10,9 C 63 % 1010,9 hPa 0,0 mm 3,2 km/h (1 Bft) N 9 0 min 0 UV-I 66 W/m 11,3 km/h (2 Bft)
14.05.2010 18:30 10,8 C 64 % 1010,9 hPa 0,0 mm 3,6 km/h (1 Bft) N 11 0 min 0 UV-I 63 W/m 16,1 km/h (3 Bft)
14.05.2010 18:40 10,8 C 64 % 1010,9 hPa 0,0 mm 1,4 km/h (1 Bft) N 5 0 min 0 UV-I 64 W/m 8,0 km/h (2 Bft)
14.05.2010 18:50 10,8 C 65 % 1010,9 hPa 0,0 mm 2,0 km/h (1 Bft) N 360 0 min 0 UV-I 61 W/m 8,0 km/h (2 Bft)
14.05.2010 19:00 10,7 C 65 % 1010,9 hPa 0,0 mm 2,1 km/h (1 Bft) N-NO 18 0 min 0 UV-I 55 W/m 12,9 km/h (3 Bft)
14.05.2010 19:10 10,6 C 65 % 1011,0 hPa 0,0 mm 1,8 km/h (1 Bft) N-NO 15 0 min 0 UV-I 46 W/m 8,0 km/h (2 Bft)
14.05.2010 19:20 10,5 C 66 % 1010,9 hPa 0,0 mm 1,4 km/h (1 Bft) N-NO 22 0 min 0 UV-I 40 W/m 8,0 km/h (2 Bft)
14.05.2010 19:30 10,4 C 65 % 1010,9 hPa 0,0 mm 0,9 km/h (0 Bft) N-NO 22 0 min 0 UV-I 37 W/m 4,8 km/h (1 Bft)
14.05.2010 19:40 10,4 C 67 % 1010,9 hPa 0,0 mm 1,1 km/h (1 Bft) N-NO 19 0 min 0 UV-I 30 W/m 9,7 km/h (2 Bft)
14.05.2010 19:50 10,3 C 67 % 1010,9 hPa 0,0 mm 0,5 km/h (0 Bft) N-NO 19 0 min 0 UV-I 21 W/m 4,8 km/h (1 Bft)
14.05.2010 20:00 10,2 C 68 % 1010,9 hPa 0,0 mm 1,5 km/h (1 Bft) N-NO 17 0 min 0 UV-I 16 W/m 6,4 km/h (2 Bft)
14.05.2010 20:10 10,2 C 68 % 1011,1 hPa 0,0 mm 1,0 km/h (0 Bft) N-NO 18 0 min 0 UV-I 12 W/m 6,4 km/h (2 Bft)
14.05.2010 20:20 10,1 C 69 % 1011,1 hPa 0,0 mm 0,8 km/h (0 Bft) N-NO 17 0 min 0 UV-I 8 W/m 4,8 km/h (1 Bft)
14.05.2010 20:30 10,0 C 70 % 1011,1 hPa 0,0 mm 0,3 km/h (0 Bft) N-NO 17 0 min 0 UV-I 6 W/m 4,8 km/h (1 Bft)
14.05.2010 20:40 9,9 C 70 % 1011,0 hPa 0,0 mm 0,5 km/h (0 Bft) N-NO 17 0 min 0 UV-I 5 W/m 3,2 km/h (1 Bft)
14.05.2010 20:50 9,9 C 71 % 1011,0 hPa 0,0 mm 0,7 km/h (0 Bft) N-NO 17 0 min 0 UV-I 0 W/m 3,2 km/h (1 Bft)
14.05.2010 21:00 9,8 C 72 % 1011,1 hPa 0,0 mm 0,5 km/h (0 Bft) N-NO 14 0 min 0 UV-I 0 W/m 4,8 km/h (1 Bft)
14.05.2010 21:10 9,7 C 72 % 1011,1 hPa 0,0 mm 0,3 km/h (0 Bft) N-NO 15 0 min 0 UV-I 0 W/m 4,8 km/h (1 Bft)
14.05.2010 21:20 9,7 C 72 % 1011,1 hPa 0,0 mm 0,1 km/h (0 Bft) N-NO 14 0 min 0 UV-I 0 W/m 1,6 km/h (1 Bft)
14.05.2010 21:30 9,7 C 72 % 1011,2 hPa 0,0 mm 0,2 km/h (0 Bft) N-NO 15 0 min 0 UV-I 0 W/m 4,8 km/h (1 Bft)
14.05.2010 21:40 9,6 C 72 % 1011,1 hPa 0,0 mm 0,2 km/h (0 Bft) N-NO 14 0 min 0 UV-I 0 W/m 3,2 km/h (1 Bft)
14.05.2010 21:50 9,6 C 72 % 1011,2 hPa 0,0 mm 0,1 km/h (0 Bft) N-NO 15 0 min 0 UV-I 0 W/m 1,6 km/h (1 Bft)
14.05.2010 22:00 9,6 C 72 % 1011,2 hPa 0,0 mm 0,6 km/h (0 Bft) N-NO 13 0 min 0 UV-I 0 W/m 4,8 km/h (1 Bft)
14.05.2010 22:10 9,6 C 72 % 1011,2 hPa 0,0 mm 0,3 km/h (0 Bft) N-NO 12 0 min 0 UV-I 0 W/m 3,2 km/h (1 Bft)
14.05.2010 22:20 9,6 C 72 % 1010,8 hPa 0,0 mm 0,1 km/h (0 Bft) N-NO 12 0 min 0 UV-I 0 W/m 3,2 km/h (1 Bft)
14.05.2010 22:30 9,6 C 73 % 1010,8 hPa 0,0 mm 0,1 km/h (0 Bft) N 11 0 min 0 UV-I 0 W/m 1,6 km/h (1 Bft)
14.05.2010 22:40 9,5 C 73 % 1011,3 hPa 0,0 mm 0,3 km/h (0 Bft) N 11 0 min 0 UV-I 0 W/m 3,2 km/h (1 Bft)
14.05.2010 22:50 9,4 C 73 % 1011,2 hPa 0,0 mm 0,1 km/h (0 Bft) N-NO 12 0 min 0 UV-I 0 W/m 1,6 km/h (1 Bft)
14.05.2010 23:00 9,4 C 73 % 1011,2 hPa 0,0 mm 0,0 km/h (0 Bft) N-NO 12 0 min 0 UV-I 0 W/m 1,6 km/h (1 Bft)
14.05.2010 23:10 9,3 C 74 % 1011,1 hPa 0,0 mm 0,1 km/h (0 Bft) N 11 0 min 0 UV-I 0 W/m 3,2 km/h (1 Bft)
14.05.2010 23:20 9,3 C 74 % 1011,1 hPa 0,0 mm 0,3 km/h (0 Bft) N 11 0 min 0 UV-I 0 W/m 4,8 km/h (1 Bft)
14.05.2010 23:30 9,2 C 74 % 1011,1 hPa 0,0 mm 0,5 km/h (0 Bft) N 355 0 min 0 UV-I 0 W/m 4,8 km/h (1 Bft)
14.05.2010 23:40 9,2 C 75 % 1011,1 hPa 0,0 mm 0,1 km/h (0 Bft) N 355 0 min 0 UV-I 0 W/m 3,2 km/h (1 Bft)
14.05.2010 23:50 9,2 C 75 % 1011,2 hPa 0,0 mm 0,4 km/h (0 Bft) N 355 0 min 0 UV-I 0 W/m 4,8 km/h (1 Bft)
_ Min-Zeit 05:30 12:50 12:40 - 00:00 - - - - - 02:40
Minimum _ 6,8 C 54 % 1005,9 hPa - 0,0 km/h (0 Bft) - - - - - 0,0 km/h (0 Bft)
_ Max-Zeit 16:10 05:40 00:00 00:00 17:50 - - 11:10 12:00 11:50 17:50
Maximum _ 12,7 C 90 % 1011,9 hPa 0,0 mm 4,4 km/h
N-NO (1 Bft)
- - 10 min 5 UV-I 885 W/m 16,1 km/h
N (3 Bft)
Durchschnitt _ 9,1 C 75 % 1010,8 hPa #0,0 mm 0,9 km/h (0 Bft) N-NO - #2:00 h 2 UV-I 205 W/m 5,7 km/h (1 Bft)